sensor_id;sensor_type;location;lat;lon;timestamp;P1;durP1;ratioP1;P2;durP2;ratioP2
351;SDS011;164;50.784;6.496;2024-01-06T00:01:36;1.55;;;1.45;;
351;SDS011;164;50.784;6.496;2024-01-06T00:04:04;1.83;;;1.70;;
351;SDS011;164;50.784;6.496;2024-01-06T00:06:31;3.90;;;1.73;;
351;SDS011;164;50.784;6.496;2024-01-06T00:09:00;1.90;;;1.80;;
351;SDS011;164;50.784;6.496;2024-01-06T00:11:28;1.48;;;1.40;;
351;SDS011;164;50.784;6.496;2024-01-06T00:13:55;1.17;;;1.08;;
351;SDS011;164;50.784;6.496;2024-01-06T00:16:22;1.33;;;1.25;;
351;SDS011;164;50.784;6.496;2024-01-06T00:18:50;0.93;;;0.80;;
351;SDS011;164;50.784;6.496;2024-01-06T00:21:17;1.05;;;0.95;;
351;SDS011;164;50.784;6.496;2024-01-06T00:23:45;1.25;;;1.15;;
351;SDS011;164;50.784;6.496;2024-01-06T00:26:14;1.17;;;1.02;;
351;SDS011;164;50.784;6.496;2024-01-06T00:28:41;1.17;;;1.08;;
351;SDS011;164;50.784;6.496;2024-01-06T00:31:08;1.10;;;1.00;;
351;SDS011;164;50.784;6.496;2024-01-06T00:33:36;0.80;;;0.80;;
351;SDS011;164;50.784;6.496;2024-01-06T00:36:03;1.45;;;1.10;;
351;SDS011;164;50.784;6.496;2024-01-06T00:38:30;1.15;;;1.05;;
351;SDS011;164;50.784;6.496;2024-01-06T00:40:58;1.60;;;1.30;;
351;SDS011;164;50.784;6.496;2024-01-06T00:43:27;1.58;;;1.48;;
351;SDS011;164;50.784;6.496;2024-01-06T00:45:54;1.85;;;1.75;;
351;SDS011;164;50.784;6.496;2024-01-06T00:48:21;2.03;;;1.80;;
351;SDS011;164;50.784;6.496;2024-01-06T00:50:48;1.90;;;1.85;;
351;SDS011;164;50.784;6.496;2024-01-06T00:53:16;2.65;;;2.33;;
351;SDS011;164;50.784;6.496;2024-01-06T00:55:43;3.00;;;1.70;;
351;SDS011;164;50.784;6.496;2024-01-06T00:58:10;2.95;;;2.17;;
351;SDS011;164;50.784;6.496;2024-01-06T01:00:39;3.40;;;2.60;;
351;SDS011;164;50.784;6.496;2024-01-06T01:03:06;3.20;;;3.03;;
351;SDS011;164;50.784;6.496;2024-01-06T01:05:34;3.08;;;2.83;;
351;SDS011;164;50.784;6.496;2024-01-06T01:08:01;4.18;;;3.20;;
351;SDS011;164;50.784;6.496;2024-01-06T01:10:28;3.13;;;3.00;;
351;SDS011;164;50.784;6.496;2024-01-06T01:12:56;5.07;;;3.90;;
351;SDS011;164;50.784;6.496;2024-01-06T01:15:23;3.85;;;2.95;;
351;SDS011;164;50.784;6.496;2024-01-06T01:17:52;3.40;;;3.20;;
351;SDS011;164;50.784;6.496;2024-01-06T01:20:19;4.35;;;3.90;;
351;SDS011;164;50.784;6.496;2024-01-06T01:22:47;5.40;;;4.78;;
351;SDS011;164;50.784;6.496;2024-01-06T01:25:14;4.40;;;4.10;;
351;SDS011;164;50.784;6.496;2024-01-06T01:27:41;6.15;;;5.00;;
351;SDS011;164;50.784;6.496;2024-01-06T01:30:09;4.80;;;4.30;;
351;SDS011;164;50.784;6.496;2024-01-06T01:32:36;5.93;;;4.80;;
351;SDS011;164;50.784;6.496;2024-01-06T01:35:06;5.30;;;4.72;;
351;SDS011;164;50.784;6.496;2024-01-06T01:37:34;4.88;;;3.67;;
351;SDS011;164;50.784;6.496;2024-01-06T01:40:01;5.28;;;4.43;;
351;SDS011;164;50.784;6.496;2024-01-06T01:42:28;5.90;;;4.25;;
351;SDS011;164;50.784;6.496;2024-01-06T01:44:56;5.90;;;4.47;;
351;SDS011;164;50.784;6.496;2024-01-06T01:47:23;5.25;;;4.40;;
351;SDS011;164;50.784;6.496;2024-01-06T01:49:51;7.90;;;5.82;;
351;SDS011;164;50.784;6.496;2024-01-06T01:52:20;4.57;;;4.28;;
351;SDS011;164;50.784;6.496;2024-01-06T01:54:48;6.95;;;5.85;;
351;SDS011;164;50.784;6.496;2024-01-06T01:57:15;7.63;;;4.95;;
351;SDS011;164;50.784;6.496;2024-01-06T01:59:43;5.85;;;5.13;;
351;SDS011;164;50.784;6.496;2024-01-06T02:02:10;6.38;;;5.85;;
351;SDS011;164;50.784;6.496;2024-01-06T02:04:37;6.95;;;5.28;;
351;SDS011;164;50.784;6.496;2024-01-06T02:07:05;5.32;;;5.07;;
351;SDS011;164;50.784;6.496;2024-01-06T02:09:34;6.22;;;5.93;;
351;SDS011;164;50.784;6.496;2024-01-06T02:12:01;7.57;;;5.03;;
351;SDS011;164;50.784;6.496;2024-01-06T02:14:28;8.05;;;5.43;;
351;SDS011;164;50.784;6.496;2024-01-06T02:16:57;6.57;;;5.85;;
351;SDS011;164;50.784;6.496;2024-01-06T02:19:24;7.40;;;5.22;;
351;SDS011;164;50.784;6.496;2024-01-06T02:21:53;6.95;;;5.95;;
351;SDS011;164;50.784;6.496;2024-01-06T02:24:21;9.00;;;6.63;;
351;SDS011;164;50.784;6.496;2024-01-06T02:26:48;7.47;;;5.80;;
351;SDS011;164;50.784;6.496;2024-01-06T02:29:15;6.95;;;5.60;;
351;SDS011;164;50.784;6.496;2024-01-06T02:31:43;7.25;;;6.28;;
351;SDS011;164;50.784;6.496;2024-01-06T02:34:10;7.30;;;6.40;;
351;SDS011;164;50.784;6.496;2024-01-06T02:36:37;9.65;;;7.47;;
351;SDS011;164;50.784;6.496;2024-01-06T02:39:06;9.00;;;6.60;;
351;SDS011;164;50.784;6.496;2024-01-06T02:41:33;9.88;;;7.15;;
351;SDS011;164;50.784;6.496;2024-01-06T02:44:00;10.15;;;8.18;;
351;SDS011;164;50.784;6.496;2024-01-06T02:46:28;11.60;;;9.10;;
351;SDS011;164;50.784;6.496;2024-01-06T02:48:55;11.57;;;8.68;;
351;SDS011;164;50.784;6.496;2024-01-06T02:51:23;12.82;;;8.98;;
351;SDS011;164;50.784;6.496;2024-01-06T02:53:50;10.73;;;9.02;;
351;SDS011;164;50.784;6.496;2024-01-06T02:56:18;12.63;;;8.95;;
351;SDS011;164;50.784;6.496;2024-01-06T02:58:46;16.05;;;9.10;;
351;SDS011;164;50.784;6.496;2024-01-06T03:01:13;17.95;;;10.50;;
351;SDS011;164;50.784;6.496;2024-01-06T03:03:40;13.48;;;10.15;;
351;SDS011;164;50.784;6.496;2024-01-06T03:06:08;14.63;;;10.15;;
351;SDS011;164;50.784;6.496;2024-01-06T03:08:35;12.27;;;8.73;;
351;SDS011;164;50.784;6.496;2024-01-06T03:11:03;12.68;;;9.23;;
351;SDS011;164;50.784;6.496;2024-01-06T03:13:32;13.70;;;10.23;;
351;SDS011;164;50.784;6.496;2024-01-06T03:16:01;13.38;;;9.57;;
351;SDS011;164;50.784;6.496;2024-01-06T03:18:28;16.48;;;11.70;;
351;SDS011;164;50.784;6.496;2024-01-06T03:20:55;15.20;;;10.02;;
351;SDS011;164;50.784;6.496;2024-01-06T03:23:22;11.75;;;9.40;;
351;SDS011;164;50.784;6.496;2024-01-06T03:25:49;14.57;;;10.00;;
351;SDS011;164;50.784;6.496;2024-01-06T03:28:17;11.70;;;8.90;;
351;SDS011;164;50.784;6.496;2024-01-06T03:30:45;12.73;;;8.63;;
351;SDS011;164;50.784;6.496;2024-01-06T03:33:12;11.82;;;9.00;;
351;SDS011;164;50.784;6.496;2024-01-06T03:35:40;9.90;;;8.10;;
351;SDS011;164;50.784;6.496;2024-01-06T03:38:07;12.80;;;9.57;;
351;SDS011;164;50.784;6.496;2024-01-06T03:40:34;15.88;;;8.93;;
351;SDS011;164;50.784;6.496;2024-01-06T03:43:02;11.35;;;8.20;;
351;SDS011;164;50.784;6.496;2024-01-06T03:45:29;9.48;;;7.20;;
351;SDS011;164;50.784;6.496;2024-01-06T03:47:58;8.38;;;6.80;;
351;SDS011;164;50.784;6.496;2024-01-06T03:50:25;12.07;;;8.45;;
351;SDS011;164;50.784;6.496;2024-01-06T03:52:52;10.32;;;7.43;;
351;SDS011;164;50.784;6.496;2024-01-06T03:55:20;9.23;;;6.85;;
351;SDS011;164;50.784;6.496;2024-01-06T03:57:47;9.27;;;7.43;;
351;SDS011;164;50.784;6.496;2024-01-06T04:00:14;7.55;;;6.15;;
351;SDS011;164;50.784;6.496;2024-01-06T04:02:42;9.75;;;6.60;;
351;SDS011;164;50.784;6.496;2024-01-06T04:05:10;12.27;;;7.32;;
351;SDS011;164;50.784;6.496;2024-01-06T04:07:37;9.05;;;5.90;;
351;SDS011;164;50.784;6.496;2024-01-06T04:10:05;7.95;;;6.03;;
351;SDS011;164;50.784;6.496;2024-01-06T04:12:32;8.35;;;7.18;;
351;SDS011;164;50.784;6.496;2024-01-06T04:14:59;7.97;;;6.55;;
351;SDS011;164;50.784;6.496;2024-01-06T04:17:27;7.20;;;5.95;;
351;SDS011;164;50.784;6.496;2024-01-06T04:19:54;12.30;;;6.93;;
351;SDS011;164;50.784;6.496;2024-01-06T04:22:23;6.32;;;4.65;;
351;SDS011;164;50.784;6.496;2024-01-06T04:24:50;6.13;;;5.00;;
351;SDS011;164;50.784;6.496;2024-01-06T04:27:17;6.63;;;4.85;;
351;SDS011;164;50.784;6.496;2024-01-06T04:29:44;7.53;;;5.90;;
351;SDS011;164;50.784;6.496;2024-01-06T04:32:11;5.38;;;5.10;;
351;SDS011;164;50.784;6.496;2024-01-06T04:34:39;6.15;;;4.55;;
351;SDS011;164;50.784;6.496;2024-01-06T04:37:06;7.03;;;5.80;;
351;SDS011;164;50.784;6.496;2024-01-06T04:39:35;9.57;;;6.45;;
351;SDS011;164;50.784;6.496;2024-01-06T04:42:03;7.70;;;6.03;;
351;SDS011;164;50.784;6.496;2024-01-06T04:44:30;9.20;;;6.57;;
351;SDS011;164;50.784;6.496;2024-01-06T04:46:58;8.52;;;5.30;;
351;SDS011;164;50.784;6.496;2024-01-06T04:49:25;9.05;;;6.30;;
351;SDS011;164;50.784;6.496;2024-01-06T04:51:52;5.65;;;4.95;;
351;SDS011;164;50.784;6.496;2024-01-06T04:54:20;11.45;;;7.50;;
351;SDS011;164;50.784;6.496;2024-01-06T04:56:49;9.93;;;6.15;;
351;SDS011;164;50.784;6.496;2024-01-06T04:59:16;11.05;;;6.70;;
351;SDS011;164;50.784;6.496;2024-01-06T05:01:44;9.90;;;5.93;;
351;SDS011;164;50.784;6.496;2024-01-06T05:04:11;11.13;;;7.97;;
351;SDS011;164;50.784;6.496;2024-01-06T05:06:38;11.98;;;8.88;;
351;SDS011;164;50.784;6.496;2024-01-06T05:09:05;12.27;;;9.55;;
351;SDS011;164;50.784;6.496;2024-01-06T05:11:32;16.90;;;10.70;;
351;SDS011;164;50.784;6.496;2024-01-06T05:14:01;13.68;;;9.50;;
351;SDS011;164;50.784;6.496;2024-01-06T05:16:28;13.38;;;8.00;;
351;SDS011;164;50.784;6.496;2024-01-06T05:18:55;18.38;;;9.63;;
351;SDS011;164;50.784;6.496;2024-01-06T05:21:23;17.20;;;10.00;;
351;SDS011;164;50.784;6.496;2024-01-06T05:23:50;17.17;;;10.75;;
351;SDS011;164;50.784;6.496;2024-01-06T05:26:18;12.88;;;8.55;;
351;SDS011;164;50.784;6.496;2024-01-06T05:28:45;15.02;;;10.98;;
351;SDS011;164;50.784;6.496;2024-01-06T05:31:13;17.88;;;11.13;;
351;SDS011;164;50.784;6.496;2024-01-06T05:33:41;18.33;;;10.02;;
351;SDS011;164;50.784;6.496;2024-01-06T05:36:08;15.93;;;10.15;;
351;SDS011;164;50.784;6.496;2024-01-06T05:38:35;20.45;;;11.73;;
351;SDS011;164;50.784;6.496;2024-01-06T05:41:03;17.70;;;9.95;;
351;SDS011;164;50.784;6.496;2024-01-06T05:43:30;16.10;;;10.15;;
351;SDS011;164;50.784;6.496;2024-01-06T05:45:57;18.52;;;11.70;;
351;SDS011;164;50.784;6.496;2024-01-06T05:48:26;14.35;;;11.45;;
351;SDS011;164;50.784;6.496;2024-01-06T05:50:53;19.55;;;9.65;;
351;SDS011;164;50.784;6.496;2024-01-06T05:53:20;17.33;;;11.50;;
351;SDS011;164;50.784;6.496;2024-01-06T05:55:47;16.90;;;11.70;;
351;SDS011;164;50.784;6.496;2024-01-06T05:58:15;17.58;;;10.05;;
351;SDS011;164;50.784;6.496;2024-01-06T06:00:42;15.95;;;12.00;;
351;SDS011;164;50.784;6.496;2024-01-06T06:03:10;14.25;;;8.63;;
351;SDS011;164;50.784;6.496;2024-01-06T06:05:39;11.95;;;8.63;;
351;SDS011;164;50.784;6.496;2024-01-06T06:08:06;15.95;;;9.55;;
351;SDS011;164;50.784;6.496;2024-01-06T06:10:33;20.98;;;12.20;;
351;SDS011;164;50.784;6.496;2024-01-06T06:13:17;17.60;;;10.15;;
351;SDS011;164;50.784;6.496;2024-01-06T06:15:44;16.23;;;9.52;;
351;SDS011;164;50.784;6.496;2024-01-06T06:18:11;18.55;;;10.25;;
351;SDS011;164;50.784;6.496;2024-01-06T06:20:40;13.93;;;8.68;;
351;SDS011;164;50.784;6.496;2024-01-06T06:23:08;15.00;;;10.10;;
351;SDS011;164;50.784;6.496;2024-01-06T06:25:37;19.27;;;11.60;;
351;SDS011;164;50.784;6.496;2024-01-06T06:28:05;22.45;;;11.38;;
351;SDS011;164;50.784;6.496;2024-01-06T06:30:32;16.23;;;9.93;;
351;SDS011;164;50.784;6.496;2024-01-06T06:32:59;22.58;;;11.27;;
351;SDS011;164;50.784;6.496;2024-01-06T06:35:27;18.40;;;12.05;;
351;SDS011;164;50.784;6.496;2024-01-06T06:37:55;16.67;;;10.13;;
351;SDS011;164;50.784;6.496;2024-01-06T06:40:23;19.27;;;9.68;;
351;SDS011;164;50.784;6.496;2024-01-06T06:42:50;16.67;;;10.65;;
351;SDS011;164;50.784;6.496;2024-01-06T06:45:17;17.83;;;11.43;;
351;SDS011;164;50.784;6.496;2024-01-06T06:47:47;18.10;;;10.80;;
351;SDS011;164;50.784;6.496;2024-01-06T06:50:15;20.17;;;9.25;;
351;SDS011;164;50.784;6.496;2024-01-06T06:52:42;15.43;;;8.98;;
351;SDS011;164;50.784;6.496;2024-01-06T06:55:11;15.60;;;8.38;;
351;SDS011;164;50.784;6.496;2024-01-06T06:57:38;16.23;;;8.60;;
351;SDS011;164;50.784;6.496;2024-01-06T07:00:06;15.80;;;9.82;;
351;SDS011;164;50.784;6.496;2024-01-06T07:02:34;14.35;;;8.90;;
351;SDS011;164;50.784;6.496;2024-01-06T07:05:02;17.33;;;9.63;;
351;SDS011;164;50.784;6.496;2024-01-06T07:07:31;12.38;;;7.32;;
351;SDS011;164;50.784;6.496;2024-01-06T07:10:00;10.18;;;6.57;;
351;SDS011;164;50.784;6.496;2024-01-06T07:12:29;9.18;;;6.78;;
351;SDS011;164;50.784;6.496;2024-01-06T07:14:57;15.70;;;8.32;;
351;SDS011;164;50.784;6.496;2024-01-06T07:17:24;13.68;;;7.75;;
351;SDS011;164;50.784;6.496;2024-01-06T07:19:51;11.80;;;7.70;;
351;SDS011;164;50.784;6.496;2024-01-06T07:22:19;11.45;;;6.95;;
351;SDS011;164;50.784;6.496;2024-01-06T07:24:46;12.95;;;7.95;;
351;SDS011;164;50.784;6.496;2024-01-06T07:27:13;11.43;;;7.22;;
351;SDS011;164;50.784;6.496;2024-01-06T07:29:42;10.60;;;6.65;;
351;SDS011;164;50.784;6.496;2024-01-06T07:32:09;14.35;;;8.18;;
351;SDS011;164;50.784;6.496;2024-01-06T07:34:36;14.27;;;8.85;;
351;SDS011;164;50.784;6.496;2024-01-06T07:37:04;14.30;;;8.15;;
351;SDS011;164;50.784;6.496;2024-01-06T07:39:32;13.32;;;8.20;;
351;SDS011;164;50.784;6.496;2024-01-06T07:41:59;16.58;;;10.20;;
351;SDS011;164;50.784;6.496;2024-01-06T07:44:27;15.63;;;8.90;;
351;SDS011;164;50.784;6.496;2024-01-06T07:46:56;17.02;;;9.27;;
351;SDS011;164;50.784;6.496;2024-01-06T07:49:23;16.15;;;8.02;;
351;SDS011;164;50.784;6.496;2024-01-06T07:51:51;10.60;;;7.45;;
351;SDS011;164;50.784;6.496;2024-01-06T07:54:18;11.73;;;7.68;;
351;SDS011;164;50.784;6.496;2024-01-06T07:56:46;15.25;;;10.15;;
351;SDS011;164;50.784;6.496;2024-01-06T07:59:13;18.50;;;10.90;;
351;SDS011;164;50.784;6.496;2024-01-06T08:01:40;15.38;;;10.15;;
351;SDS011;164;50.784;6.496;2024-01-06T08:04:10;15.43;;;9.57;;
351;SDS011;164;50.784;6.496;2024-01-06T08:06:38;13.35;;;10.02;;
351;SDS011;164;50.784;6.496;2024-01-06T08:09:05;13.50;;;8.98;;
351;SDS011;164;50.784;6.496;2024-01-06T08:11:33;17.48;;;9.85;;
351;SDS011;164;50.784;6.496;2024-01-06T08:14:00;12.80;;;8.77;;
351;SDS011;164;50.784;6.496;2024-01-06T08:16:28;14.15;;;7.72;;
351;SDS011;164;50.784;6.496;2024-01-06T08:18:55;20.02;;;10.85;;
351;SDS011;164;50.784;6.496;2024-01-06T08:21:24;16.27;;;10.10;;
351;SDS011;164;50.784;6.496;2024-01-06T08:23:52;14.60;;;10.45;;
351;SDS011;164;50.784;6.496;2024-01-06T08:26:19;15.82;;;9.98;;
351;SDS011;164;50.784;6.496;2024-01-06T08:28:46;19.13;;;10.93;;
351;SDS011;164;50.784;6.496;2024-01-06T08:31:13;15.88;;;9.60;;
351;SDS011;164;50.784;6.496;2024-01-06T08:33:40;16.48;;;10.40;;
351;SDS011;164;50.784;6.496;2024-01-06T08:36:08;13.60;;;9.45;;
351;SDS011;164;50.784;6.496;2024-01-06T08:38:37;12.15;;;9.13;;
351;SDS011;164;50.784;6.496;2024-01-06T08:41:05;15.45;;;10.43;;
351;SDS011;164;50.784;6.496;2024-01-06T08:43:32;12.90;;;8.40;;
351;SDS011;164;50.784;6.496;2024-01-06T08:45:59;14.43;;;8.57;;
351;SDS011;164;50.784;6.496;2024-01-06T08:48:27;13.70;;;9.07;;
351;SDS011;164;50.784;6.496;2024-01-06T08:50:54;14.48;;;8.68;;
351;SDS011;164;50.784;6.496;2024-01-06T08:53:22;14.13;;;8.25;;
351;SDS011;164;50.784;6.496;2024-01-06T08:55:52;14.52;;;9.25;;
351;SDS011;164;50.784;6.496;2024-01-06T08:58:19;21.38;;;11.32;;
351;SDS011;164;50.784;6.496;2024-01-06T09:00:46;13.70;;;8.35;;
351;SDS011;164;50.784;6.496;2024-01-06T09:03:14;13.52;;;9.88;;
351;SDS011;164;50.784;6.496;2024-01-06T09:05:42;16.73;;;10.45;;
351;SDS011;164;50.784;6.496;2024-01-06T09:08:09;15.77;;;9.10;;
351;SDS011;164;50.784;6.496;2024-01-06T09:10:36;14.48;;;8.30;;
351;SDS011;164;50.784;6.496;2024-01-06T09:13:05;14.60;;;8.90;;
351;SDS011;164;50.784;6.496;2024-01-06T09:15:32;16.55;;;9.32;;
351;SDS011;164;50.784;6.496;2024-01-06T09:17:59;12.48;;;6.95;;
351;SDS011;164;50.784;6.496;2024-01-06T09:20:27;12.23;;;8.18;;
351;SDS011;164;50.784;6.496;2024-01-06T09:22:55;13.90;;;7.78;;
351;SDS011;164;50.784;6.496;2024-01-06T09:25:22;14.85;;;6.85;;
351;SDS011;164;50.784;6.496;2024-01-06T09:27:49;11.68;;;8.40;;
351;SDS011;164;50.784;6.496;2024-01-06T09:30:19;13.40;;;8.77;;
351;SDS011;164;50.784;6.496;2024-01-06T09:32:46;7.18;;;5.18;;
351;SDS011;164;50.784;6.496;2024-01-06T09:35:14;10.77;;;7.60;;
351;SDS011;164;50.784;6.496;2024-01-06T09:37:41;10.50;;;7.63;;
351;SDS011;164;50.784;6.496;2024-01-06T09:40:10;14.75;;;9.20;;
351;SDS011;164;50.784;6.496;2024-01-06T09:42:38;11.68;;;8.90;;
351;SDS011;164;50.784;6.496;2024-01-06T09:45:06;10.32;;;6.78;;
351;SDS011;164;50.784;6.496;2024-01-06T09:47:35;13.48;;;7.78;;
351;SDS011;164;50.784;6.496;2024-01-06T09:50:03;11.50;;;7.18;;
351;SDS011;164;50.784;6.496;2024-01-06T09:52:31;9.90;;;6.35;;
351;SDS011;164;50.784;6.496;2024-01-06T09:54:59;9.68;;;7.00;;
351;SDS011;164;50.784;6.496;2024-01-06T09:57:27;11.43;;;6.93;;
351;SDS011;164;50.784;6.496;2024-01-06T09:59:54;10.02;;;6.40;;
351;SDS011;164;50.784;6.496;2024-01-06T10:02:22;12.00;;;7.38;;
351;SDS011;164;50.784;6.496;2024-01-06T10:04:51;11.65;;;6.00;;
351;SDS011;164;50.784;6.496;2024-01-06T10:07:18;13.13;;;7.50;;
351;SDS011;164;50.784;6.496;2024-01-06T10:09:46;11.15;;;7.60;;
351;SDS011;164;50.784;6.496;2024-01-06T10:12:13;12.77;;;6.68;;
351;SDS011;164;50.784;6.496;2024-01-06T10:14:40;11.32;;;7.75;;
351;SDS011;164;50.784;6.496;2024-01-06T10:17:08;12.88;;;6.97;;
351;SDS011;164;50.784;6.496;2024-01-06T10:19:35;12.68;;;7.70;;
351;SDS011;164;50.784;6.496;2024-01-06T10:22:04;15.20;;;8.45;;
351;SDS011;164;50.784;6.496;2024-01-06T10:24:32;10.70;;;7.53;;
351;SDS011;164;50.784;6.496;2024-01-06T10:26:59;11.70;;;6.80;;
351;SDS011;164;50.784;6.496;2024-01-06T10:29:27;15.88;;;8.27;;
351;SDS011;164;50.784;6.496;2024-01-06T10:31:54;14.63;;;7.30;;
351;SDS011;164;50.784;6.496;2024-01-06T10:34:22;13.80;;;9.25;;
351;SDS011;164;50.784;6.496;2024-01-06T10:36:50;11.75;;;6.07;;
351;SDS011;164;50.784;6.496;2024-01-06T10:39:20;12.50;;;6.25;;
351;SDS011;164;50.784;6.496;2024-01-06T10:41:48;11.55;;;7.35;;
351;SDS011;164;50.784;6.496;2024-01-06T10:44:16;11.40;;;6.78;;
351;SDS011;164;50.784;6.496;2024-01-06T10:46:44;13.32;;;8.23;;
351;SDS011;164;50.784;6.496;2024-01-06T10:49:11;9.25;;;6.78;;
351;SDS011;164;50.784;6.496;2024-01-06T10:51:39;10.45;;;5.82;;
351;SDS011;164;50.784;6.496;2024-01-06T10:54:06;12.68;;;7.00;;
351;SDS011;164;50.784;6.496;2024-01-06T10:56:36;10.00;;;6.57;;
351;SDS011;164;50.784;6.496;2024-01-06T10:59:04;11.05;;;7.25;;
351;SDS011;164;50.784;6.496;2024-01-06T11:01:32;10.82;;;5.90;;
351;SDS011;164;50.784;6.496;2024-01-06T11:04:00;9.73;;;6.50;;
351;SDS011;164;50.784;6.496;2024-01-06T11:06:30;11.02;;;6.57;;
351;SDS011;164;50.784;6.496;2024-01-06T11:08:59;9.00;;;6.68;;
351;SDS011;164;50.784;6.496;2024-01-06T11:11:27;11.15;;;7.20;;
351;SDS011;164;50.784;6.496;2024-01-06T11:14:09;10.50;;;6.45;;
351;SDS011;164;50.784;6.496;2024-01-06T11:16:44;9.30;;;6.13;;
351;SDS011;164;50.784;6.496;2024-01-06T11:21:53;8.18;;;6.38;;
351;SDS011;164;50.784;6.496;2024-01-06T11:24:21;9.68;;;6.03;;
351;SDS011;164;50.784;6.496;2024-01-06T11:26:52;9.55;;;5.43;;
351;SDS011;164;50.784;6.496;2024-01-06T11:29:21;12.02;;;7.05;;
351;SDS011;164;50.784;6.496;2024-01-06T11:34:36;12.70;;;6.30;;
351;SDS011;164;50.784;6.496;2024-01-06T11:37:04;11.65;;;6.47;;
351;SDS011;164;50.784;6.496;2024-01-06T11:39:35;9.40;;;6.13;;
351;SDS011;164;50.784;6.496;2024-01-06T11:42:03;10.43;;;6.80;;
351;SDS011;164;50.784;6.496;2024-01-06T11:44:35;7.72;;;5.40;;
351;SDS011;164;50.784;6.496;2024-01-06T11:47:04;8.40;;;6.47;;
351;SDS011;164;50.784;6.496;2024-01-06T11:49:31;10.05;;;6.28;;
351;SDS011;164;50.784;6.496;2024-01-06T11:51:59;11.80;;;6.25;;
351;SDS011;164;50.784;6.496;2024-01-06T11:54:27;9.30;;;5.00;;
351;SDS011;164;50.784;6.496;2024-01-06T11:56:54;8.07;;;5.60;;
351;SDS011;164;50.784;6.496;2024-01-06T11:59:22;9.07;;;5.57;;
351;SDS011;164;50.784;6.496;2024-01-06T12:01:51;9.43;;;6.53;;
351;SDS011;164;50.784;6.496;2024-01-06T12:04:18;7.57;;;5.97;;
351;SDS011;164;50.784;6.496;2024-01-06T12:06:47;9.57;;;5.78;;
351;SDS011;164;50.784;6.496;2024-01-06T12:09:16;7.32;;;4.85;;
351;SDS011;164;50.784;6.496;2024-01-06T12:11:45;7.57;;;4.65;;
351;SDS011;164;50.784;6.496;2024-01-06T12:14:13;8.50;;;4.72;;
351;SDS011;164;50.784;6.496;2024-01-06T12:16:40;8.85;;;5.18;;
351;SDS011;164;50.784;6.496;2024-01-06T12:19:10;5.82;;;4.97;;
351;SDS011;164;50.784;6.496;2024-01-06T12:21:37;8.00;;;4.40;;
351;SDS011;164;50.784;6.496;2024-01-06T12:24:15;6.30;;;3.70;;
351;SDS011;164;50.784;6.496;2024-01-06T12:26:45;7.75;;;4.60;;
351;SDS011;164;50.784;6.496;2024-01-06T12:29:12;6.35;;;4.57;;
351;SDS011;164;50.784;6.496;2024-01-06T12:31:41;6.10;;;4.25;;
351;SDS011;164;50.784;6.496;2024-01-06T12:34:22;6.32;;;4.28;;
351;SDS011;164;50.784;6.496;2024-01-06T12:37:02;7.32;;;5.38;;
351;SDS011;164;50.784;6.496;2024-01-06T12:39:30;8.07;;;5.00;;
351;SDS011;164;50.784;6.496;2024-01-06T12:41:58;8.00;;;5.32;;
351;SDS011;164;50.784;6.496;2024-01-06T12:44:26;6.63;;;4.25;;
351;SDS011;164;50.784;6.496;2024-01-06T12:46:54;4.25;;;4.00;;
351;SDS011;164;50.784;6.496;2024-01-06T12:49:30;5.82;;;3.92;;
351;SDS011;164;50.784;6.496;2024-01-06T12:51:59;6.63;;;4.65;;
351;SDS011;164;50.784;6.496;2024-01-06T12:54:27;7.32;;;5.00;;
351;SDS011;164;50.784;6.496;2024-01-06T12:56:55;7.90;;;4.50;;
351;SDS011;164;50.784;6.496;2024-01-06T12:59:22;5.22;;;3.42;;
351;SDS011;164;50.784;6.496;2024-01-06T13:01:53;8.57;;;4.65;;
351;SDS011;164;50.784;6.496;2024-01-06T13:04:21;7.75;;;4.50;;
351;SDS011;164;50.784;6.496;2024-01-06T13:06:52;6.55;;;5.25;;
351;SDS011;164;50.784;6.496;2024-01-06T13:09:23;7.10;;;4.60;;
351;SDS011;164;50.784;6.496;2024-01-06T13:11:51;7.57;;;4.20;;
351;SDS011;164;50.784;6.496;2024-01-06T13:14:20;8.35;;;5.47;;
351;SDS011;164;50.784;6.496;2024-01-06T13:16:48;6.25;;;4.18;;
351;SDS011;164;50.784;6.496;2024-01-06T13:19:15;7.50;;;5.50;;
351;SDS011;164;50.784;6.496;2024-01-06T13:21:43;8.00;;;4.50;;
351;SDS011;164;50.784;6.496;2024-01-06T13:24:12;10.45;;;6.25;;
351;SDS011;164;50.784;6.496;2024-01-06T13:26:40;6.68;;;5.00;;
351;SDS011;164;50.784;6.496;2024-01-06T13:29:07;6.45;;;4.50;;
351;SDS011;164;50.784;6.496;2024-01-06T13:31:35;8.52;;;4.40;;
351;SDS011;164;50.784;6.496;2024-01-06T13:34:04;5.93;;;3.63;;
351;SDS011;164;50.784;6.496;2024-01-06T13:36:31;6.90;;;4.38;;
351;SDS011;164;50.784;6.496;2024-01-06T13:38:59;9.23;;;4.40;;
351;SDS011;164;50.784;6.496;2024-01-06T13:41:28;7.57;;;5.82;;
351;SDS011;164;50.784;6.496;2024-01-06T13:43:55;8.18;;;5.10;;
351;SDS011;164;50.784;6.496;2024-01-06T13:46:22;7.13;;;5.38;;
351;SDS011;164;50.784;6.496;2024-01-06T13:48:50;9.02;;;5.72;;
351;SDS011;164;50.784;6.496;2024-01-06T13:51:17;9.25;;;7.57;;
351;SDS011;164;50.784;6.496;2024-01-06T13:53:44;9.23;;;6.18;;
351;SDS011;164;50.784;6.496;2024-01-06T13:56:12;8.60;;;6.18;;
351;SDS011;164;50.784;6.496;2024-01-06T13:58:41;9.07;;;6.43;;
351;SDS011;164;50.784;6.496;2024-01-06T14:01:08;11.57;;;7.18;;
351;SDS011;164;50.784;6.496;2024-01-06T14:03:36;11.45;;;8.13;;
351;SDS011;164;50.784;6.496;2024-01-06T14:06:03;16.17;;;10.40;;
351;SDS011;164;50.784;6.496;2024-01-06T14:08:32;11.55;;;8.13;;
351;SDS011;164;50.784;6.496;2024-01-06T14:10:59;15.20;;;8.80;;
351;SDS011;164;50.784;6.496;2024-01-06T14:13:27;16.27;;;10.45;;
351;SDS011;164;50.784;6.496;2024-01-06T14:15:55;17.55;;;9.80;;
351;SDS011;164;50.784;6.496;2024-01-06T14:18:23;21.50;;;10.93;;
351;SDS011;164;50.784;6.496;2024-01-06T14:20:52;18.30;;;11.85;;
351;SDS011;164;50.784;6.496;2024-01-06T14:23:20;20.75;;;11.90;;
351;SDS011;164;50.784;6.496;2024-01-06T14:25:49;17.40;;;10.10;;
351;SDS011;164;50.784;6.496;2024-01-06T14:28:16;18.88;;;11.05;;
351;SDS011;164;50.784;6.496;2024-01-06T14:30:44;16.67;;;10.40;;
351;SDS011;164;50.784;6.496;2024-01-06T14:33:13;18.70;;;10.98;;
351;SDS011;164;50.784;6.496;2024-01-06T14:35:40;16.25;;;11.05;;
351;SDS011;164;50.784;6.496;2024-01-06T14:38:09;14.88;;;9.52;;
351;SDS011;164;50.784;6.496;2024-01-06T14:40:36;15.77;;;10.15;;
351;SDS011;164;50.784;6.496;2024-01-06T14:43:04;19.08;;;11.45;;
351;SDS011;164;50.784;6.496;2024-01-06T14:45:31;15.45;;;10.02;;
351;SDS011;164;50.784;6.496;2024-01-06T14:47:59;19.42;;;13.32;;
351;SDS011;164;50.784;6.496;2024-01-06T14:50:27;19.80;;;11.98;;
351;SDS011;164;50.784;6.496;2024-01-06T14:52:55;17.10;;;11.07;;
351;SDS011;164;50.784;6.496;2024-01-06T14:55:23;14.63;;;8.45;;
351;SDS011;164;50.784;6.496;2024-01-06T14:57:50;15.70;;;10.77;;
351;SDS011;164;50.784;6.496;2024-01-06T15:00:18;18.20;;;11.07;;
351;SDS011;164;50.784;6.496;2024-01-06T15:02:46;15.43;;;9.60;;
351;SDS011;164;50.784;6.496;2024-01-06T15:05:15;14.15;;;9.13;;
351;SDS011;164;50.784;6.496;2024-01-06T15:07:44;17.88;;;10.80;;
351;SDS011;164;50.784;6.496;2024-01-06T15:10:11;14.05;;;10.50;;
351;SDS011;164;50.784;6.496;2024-01-06T15:12:39;18.88;;;9.48;;
351;SDS011;164;50.784;6.496;2024-01-06T15:15:07;16.25;;;9.77;;
351;SDS011;164;50.784;6.496;2024-01-06T15:17:35;15.05;;;9.93;;
351;SDS011;164;50.784;6.496;2024-01-06T15:20:02;16.75;;;8.73;;
351;SDS011;164;50.784;6.496;2024-01-06T15:22:30;16.40;;;9.40;;
351;SDS011;164;50.784;6.496;2024-01-06T15:24:59;16.83;;;10.07;;
351;SDS011;164;50.784;6.496;2024-01-06T15:27:30;11.85;;;7.95;;
351;SDS011;164;50.784;6.496;2024-01-06T15:29:58;14.55;;;8.98;;
351;SDS011;164;50.784;6.496;2024-01-06T15:32:26;14.15;;;8.38;;
351;SDS011;164;50.784;6.496;2024-01-06T15:34:54;14.25;;;8.90;;
351;SDS011;164;50.784;6.496;2024-01-06T15:37:21;14.30;;;9.30;;
351;SDS011;164;50.784;6.496;2024-01-06T15:39:48;17.45;;;9.88;;
351;SDS011;164;50.784;6.496;2024-01-06T15:42:17;17.73;;;9.00;;
351;SDS011;164;50.784;6.496;2024-01-06T15:44:44;12.35;;;7.25;;